Time;durP1;ratioP1;P1;durP2;ratioP2;P2;SDS_P1;SDS_P2;PMS_P1;PMS_P2;Temp;Humidity;BMP_temperature;BMP_pressure;BME280_temperature;BME280_humidity;BME280_pressure;Samples;Min_cycle;Max_cycle;Signal;HPM_P1;HPM_P2
2022/10/07 00:01:16;;;;;;;5.65;4.40;;;16.80;83.90;;;;;;4980575;28;20034;-76
2022/10/07 00:03:42;;;;;;;6.28;5.32;;;16.80;83.80;;;;;;4984420;28;20501;-75
2022/10/07 00:06:19;;;;;;;5.20;4.70;;;16.80;83.60;;;;;;4981456;28;20046;-76
2022/10/07 00:08:58;;;;;;;6.75;4.80;;;16.70;83.80;;;;;;4980473;28;20528;-75
2022/10/07 00:11:27;;;;;;;6.30;4.70;;;16.80;83.80;;;;;;4981880;28;20517;-75
2022/10/07 00:13:56;;;;;;;4.70;4.15;;;16.80;83.90;;;;;;4994153;28;20039;-74
2022/10/07 00:16:25;;;;;;;5.70;4.28;;;16.80;83.90;;;;;;4981331;28;20469;-74
2022/10/07 00:18:57;;;;;;;5.25;4.55;;;16.80;83.90;;;;;;4984518;28;20782;-75
2022/10/07 00:21:25;;;;;;;4.93;4.43;;;16.80;83.60;;;;;;4982248;28;20034;-75
2022/10/07 00:23:51;;;;;;;6.00;4.95;;;16.80;83.80;;;;;;4980448;28;20121;-74
2022/10/07 00:26:41;;;;;;;5.20;4.43;;;16.90;84.10;;;;;;4980533;28;20057;-74
2022/10/07 00:29:08;;;;;;;4.85;4.30;;;16.90;84.00;;;;;;4979938;28;20095;-75
2022/10/07 00:31:40;;;;;;;5.13;4.00;;;16.90;84.10;;;;;;4979961;28;20074;-76
2022/10/07 00:34:09;;;;;;;5.65;4.35;;;16.90;84.10;;;;;;4981529;28;20046;-75
2022/10/07 00:36:38;;;;;;;4.80;4.30;;;16.90;83.70;;;;;;4983140;28;20030;-75
2022/10/07 00:39:10;;;;;;;5.43;4.15;;;17.00;83.70;;;;;;4984479;28;20523;-75
2022/10/07 00:41:43;;;;;;;4.97;4.03;;;16.90;83.70;;;;;;4994896;28;20131;-75
2022/10/07 00:44:31;;;;;;;4.43;4.03;;;17.00;83.80;;;;;;4985196;28;20092;-75
2022/10/07 00:47:28;;;;;;;4.38;3.97;;;17.00;84.50;;;;;;5065669;28;20029;-74
2022/10/07 00:50:08;;;;;;;4.18;3.78;;;17.10;84.00;;;;;;4982101;28;20537;-75
2022/10/07 00:52:43;;;;;;;5.10;3.78;;;17.10;83.80;;;;;;4997833;28;20127;-74
2022/10/07 00:55:15;;;;;;;4.20;3.88;;;17.10;83.60;;;;;;4996361;28;20138;-75
2022/10/07 00:57:42;;;;;;;4.30;3.72;;;17.10;83.80;;;;;;4999980;28;20070;-75
2022/10/07 01:00:09;;;;;;;4.63;4.00;;;17.10;83.10;;;;;;4982664;28;20033;-75
2022/10/07 01:02:36;;;;;;;4.80;3.63;;;17.10;83.20;;;;;;4998923;28;20030;-75
2022/10/07 01:05:05;;;;;;;4.20;3.53;;;17.10;83.20;;;;;;4999443;28;20353;-72
2022/10/07 01:07:31;;;;;;;5.30;4.05;;;17.10;83.30;;;;;;4998653;28;20080;-74
2022/10/07 01:09:59;;;;;;;3.95;3.55;;;17.10;83.40;;;;;;4981434;28;20045;-75
2022/10/07 01:13:01;;;;;;;3.80;3.50;;;17.20;83.00;;;;;;4998499;28;20042;-76
2022/10/07 01:15:35;;;;;;;4.30;3.90;;;17.10;82.90;;;;;;5068116;28;20040;-74
2022/10/07 01:18:05;;;;;;;3.90;3.50;;;17.20;82.80;;;;;;5000407;28;20478;-74
2022/10/07 01:20:48;;;;;;;4.03;3.58;;;17.10;82.50;;;;;;4999124;28;20135;-75
2022/10/07 01:23:30;;;;;;;4.72;3.42;;;17.10;82.50;;;;;;4998122;28;20412;-73
2022/10/07 01:26:21;;;;;;;5.75;3.70;;;17.10;82.40;;;;;;4998188;28;20291;-74
2022/10/07 01:28:54;;;;;;;5.38;3.55;;;17.10;82.60;;;;;;5001169;28;20029;-75
2022/10/07 01:31:28;;;;;;;4.00;3.60;;;17.20;82.50;;;;;;5015197;28;20038;-74
2022/10/07 01:33:54;;;;;;;4.97;3.85;;;17.10;82.50;;;;;;4998818;28;20100;-75
2022/10/07 01:36:24;;;;;;;3.90;3.60;;;17.10;82.50;;;;;;5081480;28;20039;-75
2022/10/07 01:39:01;;;;;;;3.50;3.20;;;17.10;82.50;;;;;;4998954;28;20060;-75
2022/10/07 01:41:29;;;;;;;4.55;3.90;;;17.10;82.30;;;;;;5083365;28;20042;-75
2022/10/07 01:43:57;;;;;;;4.35;3.95;;;17.10;82.10;;;;;;4996689;28;20060;-75
2022/10/07 01:46:26;;;;;;;4.75;3.63;;;17.10;82.10;;;;;;5080326;28;20034;-75
2022/10/07 01:48:56;;;;;;;4.63;3.50;;;17.10;81.90;;;;;;4982181;28;20136;-75
2022/10/07 01:51:27;;;;;;;4.05;3.65;;;17.10;82.00;;;;;;5064795;28;20068;-75
2022/10/07 01:54:16;;;;;;;4.10;3.45;;;17.10;81.80;;;;;;4981778;28;20048;-75
2022/10/07 01:56:50;;;;;;;5.10;3.75;;;17.10;81.80;;;;;;4970385;28;20033;-74
2022/10/07 01:59:29;;;;;;;3.95;3.22;;;17.00;81.60;;;;;;4982384;28;20073;-74
2022/10/07 02:02:27;;;;;;;4.95;4.15;;;17.00;81.50;;;;;;4969436;28;20128;-75
2022/10/07 02:05:22;;;;;;;4.10;3.70;;;17.00;81.10;;;;;;4986280;28;20046;-74
2022/10/07 02:08:08;;;;;;;3.58;3.28;;;17.00;81.30;;;;;;4986717;28;20034;-75
2022/10/07 02:10:59;;;;;;;4.32;3.50;;;16.90;81.50;;;;;;4998856;28;20386;-75
2022/10/07 02:13:36;;;;;;;5.40;3.58;;;16.90;81.60;;;;;;4998420;28;20099;-76
2022/10/07 02:16:24;;;;;;;4.13;3.45;;;16.90;81.40;;;;;;4981987;28;20362;-75
2022/10/07 02:18:51;;;;;;;4.93;3.70;;;16.90;81.40;;;;;;4980764;28;20115;-76
2022/10/07 02:21:25;;;;;;;3.53;3.20;;;16.90;81.40;;;;;;5079669;28;20034;-75
2022/10/07 02:23:53;;;;;;;6.27;3.37;;;16.80;81.40;;;;;;5082032;28;20038;-75
2022/10/07 02:26:20;;;;;;;4.10;3.33;;;16.80;81.40;;;;;;5000060;28;20069;-75
2022/10/07 02:28:51;;;;;;;4.45;3.70;;;16.80;81.40;;;;;;5000892;28;20042;-75
2022/10/07 02:31:22;;;;;;;4.13;3.72;;;16.80;81.40;;;;;;4985487;28;20138;-75
2022/10/07 02:33:52;;;;;;;5.15;3.50;;;16.70;81.20;;;;;;4970151;28;20034;-76
2022/10/07 02:36:32;;;;;;;6.13;3.63;;;16.70;81.30;;;;;;4968569;28;20034;-75
2022/10/07 02:39:00;;;;;;;6.78;3.72;;;16.70;81.90;;;;;;5082638;28;20038;-75
2022/10/07 02:41:34;;;;;;;4.38;2.88;;;16.70;81.60;;;;;;4985333;28;20045;-76
2022/10/07 02:44:28;;;;;;;3.72;3.33;;;16.70;81.90;;;;;;4987152;28;20042;-76
2022/10/07 02:47:15;;;;;;;3.85;3.45;;;16.70;81.90;;;;;;4983002;28;20038;-76
2022/10/07 02:49:45;;;;;;;4.00;3.60;;;16.80;81.90;;;;;;4986720;28;20632;-75
2022/10/07 02:52:15;;;;;;;4.07;3.50;;;16.80;82.00;;;;;;4981867;28;20050;-75
2022/10/07 02:54:58;;;;;;;3.30;3.00;;;16.70;81.80;;;;;;4999753;28;20030;-75
2022/10/07 02:57:35;;;;;;;4.30;3.28;;;16.70;81.60;;;;;;5002600;28;21152;-75
2022/10/07 03:00:02;;;;;;;5.00;3.35;;;16.80;81.90;;;;;;5068019;28;20034;-75
2022/10/07 03:02:49;;;;;;;6.63;3.60;;;16.70;81.90;;;;;;4985849;28;20042;-75
2022/10/07 03:05:19;;;;;;;6.57;3.45;;;16.80;82.00;;;;;;5002930;28;20042;-74
2022/10/07 03:07:50;;;;;;;4.53;3.38;;;16.80;82.00;;;;;;5069365;28;20038;-75
2022/10/07 03:10:16;;;;;;;3.45;3.13;;;16.80;81.90;;;;;;5000034;28;20484;-75
2022/10/07 03:12:42;;;;;;;5.20;3.60;;;16.80;81.60;;;;;;4985557;28;20030;-75
2022/10/07 03:15:12;;;;;;;4.20;3.25;;;16.70;81.60;;;;;;4985885;28;20045;-74
2022/10/07 03:17:39;;;;;;;3.38;2.95;;;16.70;81.50;;;;;;5002197;28;20488;-75
2022/10/07 03:20:08;;;;;;;3.63;3.30;;;16.70;81.40;;;;;;4984781;28;20088;-75
2022/10/07 03:22:34;;;;;;;3.70;3.03;;;16.70;81.30;;;;;;4986140;28;20424;-75
2022/10/07 03:25:00;;;;;;;4.03;2.95;;;16.70;81.30;;;;;;5067954;28;20539;-75
2022/10/07 03:27:27;;;;;;;3.97;3.47;;;16.70;81.40;;;;;;4984417;28;20102;-75
2022/10/07 03:29:54;;;;;;;4.40;3.60;;;16.70;81.30;;;;;;4988487;28;21075;-75
2022/10/07 03:32:20;;;;;;;4.85;3.20;;;16.70;81.10;;;;;;5001161;28;20042;-75
2022/10/07 03:34:45;;;;;;;4.47;3.20;;;16.70;81.20;;;;;;5001790;28;20106;-75
2022/10/07 03:37:11;;;;;;;3.35;3.00;;;16.70;81.40;;;;;;5000185;28;20563;-74
2022/10/07 03:39:38;;;;;;;3.78;3.05;;;16.60;81.00;;;;;;4985282;28;20177;-74
2022/10/07 03:42:04;;;;;;;3.88;3.33;;;16.70;81.40;;;;;;4987228;28;20137;-73
2022/10/07 03:44:31;;;;;;;3.92;2.70;;;16.60;81.20;;;;;;4983648;28;20469;-73
2022/10/07 03:46:57;;;;;;;3.53;3.00;;;16.60;81.30;;;;;;4986097;28;20132;-74
2022/10/07 03:49:25;;;;;;;4.30;2.90;;;16.70;81.60;;;;;;5087290;28;20132;-74
2022/10/07 03:51:51;;;;;;;6.82;3.53;;;16.60;81.00;;;;;;5088096;28;20508;-73
2022/10/07 03:54:18;;;;;;;5.15;3.17;;;16.60;80.90;;;;;;4970672;28;20128;-74
2022/10/07 03:56:44;;;;;;;2.78;2.58;;;16.60;81.20;;;;;;4984510;28;20041;-73
2022/10/07 03:59:10;;;;;;;4.38;3.15;;;16.60;81.10;;;;;;4971699;28;20034;-74
2022/10/07 04:01:36;;;;;;;4.03;3.13;;;16.70;81.10;;;;;;4987797;28;20028;-77
2022/10/07 04:04:02;;;;;;;3.65;3.03;;;16.60;81.00;;;;;;4971061;28;20503;-77
2022/10/07 04:06:34;;;;;;;4.38;3.00;;;16.60;81.00;;;;;;5000655;28;20651;-77
2022/10/07 04:09:04;;;;;;;3.83;3.17;;;16.60;81.10;;;;;;4981960;28;20480;-77
2022/10/07 04:11:30;;;;;;;3.38;2.80;;;16.60;81.00;;;;;;4985438;28;20102;-77
2022/10/07 04:13:59;;;;;;;3.05;2.75;;;16.60;81.30;;;;;;4985851;28;20034;-77
2022/10/07 04:16:26;;;;;;;3.35;2.95;;;16.60;81.10;;;;;;4986275;28;20033;-77
2022/10/07 04:18:55;;;;;;;3.17;2.80;;;16.60;80.90;;;;;;5001146;28;20044;-75
2022/10/07 04:21:22;;;;;;;3.65;2.53;;;16.60;80.90;;;;;;5069900;28;20798;-75
2022/10/07 04:23:48;;;;;;;3.20;2.85;;;16.60;80.90;;;;;;4984581;28;20040;-75
2022/10/07 04:26:14;;;;;;;3.97;2.80;;;16.60;80.60;;;;;;4986954;28;20035;-74
2022/10/07 04:28:47;;;;;;;3.92;3.03;;;16.60;80.80;;;;;;5086342;28;20436;-76
2022/10/07 04:31:19;;;;;;;3.88;2.40;;;16.60;80.40;;;;;;5001047;28;20456;-74
2022/10/07 04:33:50;;;;;;;4.30;2.85;;;16.60;80.70;;;;;;4984161;28;20439;-76
2022/10/07 04:36:23;;;;;;;5.35;2.35;;;16.60;81.60;;;;;;4974619;28;20408;-75
2022/10/07 04:38:56;;;;;;;4.55;2.80;;;16.60;81.70;;;;;;5011722;28;20032;-81
2022/10/07 04:41:26;;;;;;;13.50;3.03;;;16.70;81.70;;;;;;5023579;28;20042;-79
2022/10/07 04:43:52;;;;;;;4.45;2.50;;;16.70;81.50;;;;;;4991922;28;20056;-79
2022/10/07 04:46:18;;;;;;;3.53;2.85;;;16.70;81.50;;;;;;4971453;28;20391;-78
2022/10/07 04:48:55;;;;;;;5.68;3.15;;;16.70;81.40;;;;;;5002768;28;20042;-79
2022/10/07 04:51:24;;;;;;;5.15;3.00;;;16.80;81.70;;;;;;4991962;28;20046;-75
2022/10/07 04:53:53;;;;;;;8.32;3.10;;;16.80;81.60;;;;;;4999296;28;20030;-75
2022/10/07 04:56:22;;;;;;;5.15;3.05;;;16.80;81.50;;;;;;4982802;28;20027;-75
2022/10/07 04:58:48;;;;;;;4.85;2.70;;;16.80;80.90;;;;;;4983518;28;20034;-75
2022/10/07 05:01:15;;;;;;;6.45;2.75;;;16.70;81.00;;;;;;4987735;28;20038;-75
2022/10/07 05:03:45;;;;;;;4.18;2.90;;;16.80;81.40;;;;;;4981866;28;20053;-75
2022/10/07 05:06:11;;;;;;;11.10;3.13;;;16.80;82.00;;;;;;5083162;28;20159;-75
2022/10/07 05:08:42;;;;;;;4.50;3.00;;;16.80;82.10;;;;;;4983444;28;20037;-75
2022/10/07 05:11:10;;;;;;;3.50;2.63;;;16.90;82.30;;;;;;4997467;28;20036;-75
2022/10/07 05:13:43;;;;;;;2.90;2.38;;;17.00;82.10;;;;;;5061947;28;20026;-75
2022/10/07 05:16:10;;;;;;;6.22;2.60;;;17.20;81.80;;;;;;4981938;28;20034;-75
2022/10/07 05:18:38;;;;;;;4.38;2.97;;;17.40;81.40;;;;;;4982743;28;20086;-76
2022/10/07 05:21:07;;;;;;;5.47;2.47;;;17.60;80.40;;;;;;4999747;28;20176;-75
2022/10/07 05:23:37;;;;;;;5.38;2.78;;;17.60;79.70;;;;;;4971254;28;20068;-75
2022/10/07 05:26:09;;;;;;;5.88;2.55;;;17.70;79.40;;;;;;5083951;28;20049;-75
2022/10/07 05:28:39;;;;;;;3.35;2.00;;;17.70;79.10;;;;;;4984797;28;20060;-75
2022/10/07 05:31:11;;;;;;;4.75;2.10;;;17.70;78.90;;;;;;4981098;28;20048;-75
2022/10/07 05:33:38;;;;;;;7.40;2.67;;;17.70;79.00;;;;;;4986590;28;20133;-75
2022/10/07 05:36:06;;;;;;;3.65;2.38;;;17.70;79.00;;;;;;4982276;28;20124;-75
2022/10/07 05:38:32;;;;;;;5.22;2.17;;;17.70;78.30;;;;;;4986454;28;20034;-76
2022/10/07 05:41:05;;;;;;;3.65;2.03;;;17.70;78.50;;;;;;4982974;28;20058;-75
2022/10/07 05:43:35;;;;;;;5.75;2.22;;;17.60;78.40;;;;;;4979967;28;20759;-75
2022/10/07 05:46:06;;;;;;;4.90;2.47;;;17.70;78.70;;;;;;4978309;28;20129;-75
2022/10/07 05:48:36;;;;;;;2.75;1.92;;;17.70;78.30;;;;;;4995616;28;20039;-75
2022/10/07 05:51:03;;;;;;;4.60;1.92;;;17.70;77.90;;;;;;4967944;28;20045;-75
2022/10/07 05:53:30;;;;;;;5.38;2.30;;;17.70;77.80;;;;;;4997137;28;20035;-75
2022/10/07 05:55:57;;;;;;;5.93;2.35;;;17.60;78.20;;;;;;4980118;28;20031;-75
2022/10/07 05:58:26;;;;;;;5.53;2.38;;;17.70;78.00;;;;;;4979919;28;20030;-75
2022/10/07 06:00:56;;;;;;;3.85;1.70;;;17.60;77.80;;;;;;4979039;28;20049;-75
2022/10/07 06:03:26;;;;;;;3.88;2.15;;;17.70;78.10;;;;;;4965800;28;20042;-75
2022/10/07 06:05:55;;;;;;;4.75;2.30;;;17.70;77.70;;;;;;4993932;28;20034;-75
2022/10/07 06:08:24;;;;;;;2.97;1.75;;;17.80;77.60;;;;;;4976134;28;20548;-76
2022/10/07 06:13:38;;;;;;;3.27;1.70;;;18.00;76.80;;;;;;4994377;28;20034;-75
2022/10/07 06:16:07;;;;;;;3.58;1.90;;;18.20;77.10;;;;;;4978539;28;20129;-75
2022/10/07 06:18:35;;;;;;;4.03;1.65;;;18.20;77.00;;;;;;4977997;28;20027;-75
2022/10/07 06:21:02;;;;;;;6.18;2.20;;;18.20;76.70;;;;;;4995766;28;20496;-75
2022/10/07 06:23:29;;;;;;;5.00;2.00;;;18.30;76.40;;;;;;4982888;28;20129;-75
2022/10/07 06:26:08;;;;;;;1.67;1.58;;;18.40;76.40;;;;;;4996519;28;20038;-75
2022/10/07 06:28:36;;;;;;;2.15;1.88;;;18.50;75.60;;;;;;4977615;28;20046;-75
2022/10/07 06:31:07;;;;;;;3.15;1.55;;;18.60;75.00;;;;;;4984513;28;20045;-76
2022/10/07 06:33:35;;;;;;;2.60;1.58;;;18.80;75.20;;;;;;4986200;28;20091;-75
2022/10/07 06:36:06;;;;;;;2.03;1.65;;;18.90;75.10;;;;;;4986255;28;20031;-76
2022/10/07 06:38:32;;;;;;;3.33;1.65;;;19.10;74.30;;;;;;4980984;28;20039;-75
2022/10/07 06:41:03;;;;;;;4.35;1.92;;;19.10;73.20;;;;;;4987285;28;20054;-79
2022/10/07 06:43:33;;;;;;;2.70;1.50;;;19.00;73.20;;;;;;4986187;28;20046;-79
2022/10/07 06:46:06;;;;;;;3.97;1.95;;;19.00;72.30;;;;;;4982271;28;20133;-80
2022/10/07 06:48:34;;;;;;;2.40;1.70;;;18.90;72.60;;;;;;4996451;28;20063;-79
2022/10/07 06:51:02;;;;;;;4.95;1.52;;;18.80;72.50;;;;;;4982550;28;20039;-80
2022/10/07 06:53:30;;;;;;;4.60;1.83;;;18.80;72.50;;;;;;4998757;28;20058;-80
2022/10/07 06:56:05;;;;;;;3.03;1.70;;;18.70;72.90;;;;;;4996314;28;20037;-81
2022/10/07 06:58:33;;;;;;;;;;;18.70;73.40;;;;;;4985513;28;20049;-81
2022/10/07 07:01:01;;;;;;;2.92;1.77;;;18.60;73.60;;;;;;4987483;28;19917;-80
2022/10/07 07:03:28;;;;;;;6.15;3.95;;;18.70;74.10;;;;;;4990459;28;20557;-83
2022/10/07 07:05:55;;;;;;;17.17;9.77;;;18.70;73.50;;;;;;4986498;28;20038;-84
2022/10/07 07:08:27;;;;;;;20.42;7.53;;;18.60;73.20;;;;;;5002057;28;20039;-87
2022/10/07 07:10:54;;;;;;;7.85;4.32;;;18.60;73.50;;;;;;4971451;28;20027;-88
2022/10/07 07:13:21;;;;;;;6.15;3.00;;;18.70;74.20;;;;;;4992192;28;20034;-89
2022/10/07 07:15:55;;;;;;;5.60;2.30;;;18.70;74.00;;;;;;4971656;28;20088;-90
2022/10/07 07:18:22;;;;;;;5.80;2.13;;;18.80;73.20;;;;;;4989631;28;20091;-88
2022/10/07 07:20:48;;;;;;;3.55;1.80;;;18.80;73.50;;;;;;4989650;28;20034;-89
2022/10/07 07:23:13;;;;;;;6.10;2.38;;;18.80;73.70;;;;;;4993960;28;20048;-90
2022/10/07 07:25:44;;;;;;;7.28;2.00;;;18.80;74.00;;;;;;4973240;28;20034;-83
2022/10/07 07:28:14;;;;;;;4.72;1.90;;;18.80;73.60;;;;;;4989012;28;20034;-86
2022/10/07 07:30:41;;;;;;;6.93;1.80;;;18.90;74.50;;;;;;4992156;28;20137;-83
2022/10/07 07:33:08;;;;;;;5.22;1.80;;;18.90;73.90;;;;;;4981435;28;20129;-86
2022/10/07 07:35:38;;;;;;;3.85;1.30;;;18.90;74.20;;;;;;4982546;28;20038;-88
2022/10/07 07:38:05;;;;;;;2.97;1.60;;;18.90;73.20;;;;;;4996950;28;20030;-83
2022/10/07 07:40:34;;;;;;;4.57;1.60;;;18.90;73.20;;;;;;4968346;28;20159;-79
2022/10/07 07:43:01;;;;;;;4.10;1.50;;;18.80;73.00;;;;;;4996401;28;20038;-78
2022/10/07 07:45:28;;;;;;;2.53;1.48;;;18.90;73.30;;;;;;4982000;28;20039;-78
2022/10/07 07:47:54;;;;;;;3.95;1.77;;;18.80;73.10;;;;;;4996731;28;20066;-78
2022/10/07 07:50:25;;;;;;;3.13;1.60;;;18.90;72.60;;;;;;4969448;28;20111;-77
2022/10/07 07:52:53;;;;;;;3.83;1.15;;;18.80;72.80;;;;;;4981462;28;20400;-79
2022/10/07 07:55:22;;;;;;;4.47;1.40;;;18.80;72.40;;;;;;4980684;28;20035;-79
2022/10/07 07:57:48;;;;;;;4.22;1.40;;;18.80;72.60;;;;;;4982548;28;20080;-79
2022/10/07 08:00:17;;;;;;;5.88;1.42;;;18.80;72.90;;;;;;4980968;28;20043;-84
2022/10/07 08:02:54;;;;;;;4.20;1.30;;;18.80;72.60;;;;;;4982309;28;20069;-84
2022/10/07 08:05:21;;;;;;;5.32;1.40;;;18.80;72.00;;;;;;4981844;28;20042;-84
2022/10/07 08:07:47;;;;;;;4.00;1.40;;;18.90;71.30;;;;;;4969932;28;20045;-83
2022/10/07 08:10:14;;;;;;;4.22;1.48;;;18.80;70.80;;;;;;4963477;28;20515;-83
2022/10/07 08:12:40;;;;;;;3.10;1.30;;;18.90;70.90;;;;;;4964679;28;20039;-84
2022/10/07 08:15:07;;;;;;;4.25;0.98;;;18.90;70.60;;;;;;4980270;28;20634;-80
2022/10/07 08:17:34;;;;;;;3.58;1.33;;;18.90;70.60;;;;;;4978419;28;20043;-81
2022/10/07 08:20:00;;;;;;;4.15;1.40;;;18.90;70.40;;;;;;4996204;28;20042;-80
2022/10/07 08:22:26;;;;;;;4.82;1.73;;;18.90;69.70;;;;;;4997989;28;20524;-79
2022/10/07 08:24:52;;;;;;;8.75;1.95;;;18.90;69.90;;;;;;4979218;28;20062;-80
2022/10/07 08:27:20;;;;;;;4.55;2.00;;;18.90;70.30;;;;;;4979989;28;20459;-79
2022/10/07 08:29:46;;;;;;;3.88;1.83;;;18.90;70.50;;;;;;4980687;28;20061;-79
2022/10/07 08:32:12;;;;;;;4.72;1.95;;;18.90;70.50;;;;;;4980833;28;20536;-80
2022/10/07 08:34:38;;;;;;;6.80;1.80;;;18.90;70.80;;;;;;4981976;28;20038;-81
2022/10/07 08:37:04;;;;;;;5.63;1.98;;;18.90;70.50;;;;;;4979019;28;20053;-80
2022/10/07 08:39:30;;;;;;;8.90;1.83;;;18.90;70.40;;;;;;4984015;28;20042;-79
2022/10/07 08:41:56;;;;;;;3.67;1.45;;;18.90;70.30;;;;;;4996578;28;20153;-81
2022/10/07 08:44:25;;;;;;;3.80;1.63;;;18.80;70.50;;;;;;5067527;28;20121;-80
2022/10/07 08:46:56;;;;;;;4.60;1.73;;;18.90;70.50;;;;;;4984068;28;20932;-77
2022/10/07 08:49:53;;;;;;;2.50;1.40;;;18.90;70.40;;;;;;5000679;28;20053;-78
2022/10/07 08:52:39;;;;;;;3.28;1.25;;;18.80;69.90;;;;;;5000770;28;20087;-77
2022/10/07 08:55:27;;;;;;;4.85;1.52;;;18.80;70.00;;;;;;5000773;28;20167;-77
2022/10/07 08:58:04;;;;;;;7.07;1.75;;;18.70;69.30;;;;;;4998745;28;20030;-76
2022/10/07 09:01:01;;;;;;;3.58;1.67;;;18.70;68.70;;;;;;5000223;28;20065;-74
2022/10/07 09:04:13;;;;;;;4.22;1.27;;;18.60;68.90;;;;;;4986870;28;20034;-76
2022/10/07 09:06:59;;;;;;;5.55;1.55;;;18.60;69.30;;;;;;5081564;28;20090;-76
2022/10/07 09:09:50;;;;;;;;;;;18.60;69.90;;;;;;5001121;28;20038;-77
2022/10/07 09:12:21;;;;;;;3.53;1.55;;;18.60;70.20;;;;;;4988653;28;20177;-76
2022/10/07 09:14:51;;;;;;;9.20;5.13;;;18.60;70.50;;;;;;5000396;28;20068;-76
2022/10/07 09:17:26;;;;;;;7.78;2.67;;;18.50;70.10;;;;;;4999501;28;20037;-77
2022/10/07 09:19:58;;;;;;;8.95;2.10;;;18.60;70.30;;;;;;4997485;28;20037;-76
2022/10/07 09:22:31;;;;;;;4.43;1.80;;;18.60;69.90;;;;;;5001423;28;20046;-76
2022/10/07 09:25:21;;;;;;;4.82;2.15;;;18.60;69.40;;;;;;4999213;28;20723;-76
2022/10/07 09:27:49;;;;;;;3.33;1.60;;;18.60;69.90;;;;;;4982087;28;20068;-76
2022/10/07 09:30:15;;;;;;;3.67;1.90;;;18.60;69.60;;;;;;5000524;28;20046;-76
2022/10/07 09:32:47;;;;;;;3.15;1.55;;;18.60;69.60;;;;;;5000074;28;20062;-76
2022/10/07 09:35:16;;;;;;;3.40;1.40;;;18.60;69.60;;;;;;4999339;28;20050;-76
2022/10/07 09:38:09;;;;;;;2.85;1.35;;;18.60;68.90;;;;;;4999440;28;20038;-76
2022/10/07 09:43:24;;;;;;;3.38;1.30;;;18.60;69.40;;;;;;4999273;28;21061;-76
2022/10/07 09:45:50;;;;;;;2.80;0.98;;;18.60;69.40;;;;;;5000894;28;20930;-76
2022/10/07 09:48:20;;;;;;;3.17;1.30;;;18.50;68.50;;;;;;4999499;28;20559;-76
2022/10/07 09:50:46;;;;;;;4.82;1.25;;;18.50;69.00;;;;;;4999646;28;20121;-76
2022/10/07 09:53:20;;;;;;;3.63;1.60;;;18.50;68.70;;;;;;4981040;28;20119;-77
2022/10/07 09:55:46;;;;;;;3.67;1.50;;;18.50;68.70;;;;;;4999823;28;20030;-76
2022/10/07 09:58:23;;;;;;;2.10;0.98;;;18.50;68.80;;;;;;5002449;28;20508;-77
2022/10/07 10:00:51;;;;;;;4.47;1.10;;;18.50;68.80;;;;;;4999521;28;20041;-76
2022/10/07 10:03:18;;;;;;;4.13;0.98;;;18.50;68.30;;;;;;4999966;28;20042;-76
2022/10/07 10:06:20;;;;;;;5.25;1.30;;;18.50;68.50;;;;;;5002649;28;20071;-76
2022/10/07 10:08:55;;;;;;;3.38;1.40;;;18.50;68.70;;;;;;4992429;28;20087;-76
2022/10/07 10:11:29;;;;;;;2.78;1.08;;;18.50;68.40;;;;;;4985998;28;20054;-76
2022/10/07 10:13:55;;;;;;;2.70;0.90;;;18.50;68.40;;;;;;4986798;28;20083;-75
2022/10/07 10:16:24;;;;;;;4.70;1.05;;;18.50;68.30;;;;;;5004382;28;20085;-76
2022/10/07 10:19:20;;;;;;;3.17;1.00;;;18.50;68.30;;;;;;5085901;28;20048;-76
2022/10/07 10:21:59;;;;;;;4.22;1.35;;;18.50;68.20;;;;;;5002652;28;20573;-77
2022/10/07 10:27:32;;;;;;;2.75;1.05;;;18.60;68.50;;;;;;5005898;28;21057;-77
2022/10/07 10:30:08;;;;;;;4.88;1.05;;;18.60;68.10;;;;;;5085789;28;20031;-75
2022/10/07 10:32:52;;;;;;;3.35;0.82;;;18.50;67.80;;;;;;5001165;28;20049;-77
2022/10/07 10:35:28;;;;;;;3.22;0.90;;;18.50;68.00;;;;;;5083046;28;20037;-76
2022/10/07 10:38:02;;;;;;;2.92;0.60;;;18.50;67.10;;;;;;4985990;28;20419;-76
2022/10/07 10:40:46;;;;;;;2.38;1.00;;;18.50;66.90;;;;;;5005585;28;20041;-77
2022/10/07 10:43:19;;;;;;;3.85;1.00;;;18.50;66.60;;;;;;5002686;28;20082;-79
2022/10/07 10:46:00;;;;;;;5.00;0.70;;;18.50;67.50;;;;;;4986937;28;20030;-77
2022/10/07 10:48:56;;;;;;;4.50;1.02;;;18.50;67.50;;;;;;4985510;28;20477;-76
2022/10/07 10:51:46;;;;;;;2.83;0.90;;;18.50;67.80;;;;;;5010718;28;20071;-76
2022/10/07 10:54:43;;;;;;;3.75;0.80;;;18.50;67.70;;;;;;4985038;28;20037;-76
2022/10/07 10:57:11;;;;;;;2.53;0.85;;;18.50;68.00;;;;;;5002559;28;20045;-76
2022/10/07 11:00:12;;;;;;;3.92;1.02;;;18.50;67.90;;;;;;5002841;28;20034;-75
2022/10/07 11:02:37;;;;;;;2.45;0.90;;;18.50;67.80;;;;;;5000354;28;20099;-76
2022/10/07 11:05:20;;;;;;;3.15;1.10;;;18.50;67.30;;;;;;4989223;28;20489;-76
2022/10/07 11:07:53;;;;;;;2.00;1.00;;;18.50;67.40;;;;;;5004934;28;20622;-76
2022/10/07 11:10:35;;;;;;;5.90;1.20;;;18.50;67.70;;;;;;5004525;28;20117;-76
2022/10/07 11:13:17;;;;;;;3.33;0.90;;;18.50;67.00;;;;;;5085596;28;20132;-77
2022/10/07 11:15:47;;;;;;;5.03;1.10;;;18.50;67.20;;;;;;5002299;28;20034;-77
2022/10/07 11:18:29;;;;;;;2.42;1.35;;;18.50;67.60;;;;;;4984629;28;20088;-77
2022/10/07 11:20:58;;;;;;;1.42;0.90;;;18.50;67.50;;;;;;5000515;28;20042;-74
2022/10/07 11:23:24;;;;;;;4.22;1.02;;;18.50;67.50;;;;;;5001629;28;20048;-76
2022/10/07 11:25:56;;;;;;;2.25;1.13;;;18.50;67.00;;;;;;5002976;28;20034;-75
2022/10/07 11:28:26;;;;;;;3.20;0.70;;;18.50;67.50;;;;;;4986015;28;20050;-76
2022/10/07 11:31:09;;;;;;;2.47;0.70;;;18.50;67.50;;;;;;5001801;28;20140;-75
2022/10/07 11:33:50;;;;;;;3.90;1.33;;;18.50;67.40;;;;;;4984339;28;20042;-76
2022/10/07 11:37:01;;;;;;;2.28;1.10;;;18.50;67.00;;;;;;5001010;28;20507;-75
2022/10/07 11:39:28;;;;;;;3.55;1.38;;;18.50;67.00;;;;;;5041289;28;20117;-76
2022/10/07 11:42:03;;;;;;;2.60;0.98;;;18.50;66.90;;;;;;5039016;28;20045;-75
2022/10/07 11:44:59;;;;;;;2.00;0.95;;;18.50;67.10;;;;;;5039790;28;20029;-75
2022/10/07 11:47:32;;;;;;;3.95;1.10;;;18.50;67.50;;;;;;5021957;28;20128;-76
2022/10/07 11:50:24;;;;;;;3.90;1.05;;;18.50;67.40;;;;;;5039687;28;20095;-76
2022/10/07 11:52:54;;;;;;;4.97;1.13;;;18.40;67.70;;;;;;5023496;28;20028;-76
2022/10/07 11:55:22;;;;;;;2.47;0.80;;;18.50;68.10;;;;;;5039305;28;20037;-75
2022/10/07 11:57:54;;;;;;;2.83;1.10;;;18.50;67.40;;;;;;5042424;28;20424;-75
2022/10/07 12:00:25;;;;;;;2.67;0.90;;;18.40;67.10;;;;;;5023403;28;20029;-75
2022/10/07 12:02:54;;;;;;;4.68;1.00;;;18.40;67.60;;;;;;5039983;28;20546;-74
2022/10/07 12:05:35;;;;;;;3.42;0.90;;;18.50;68.00;;;;;;5026411;28;20041;-75
2022/10/07 12:08:22;;;;;;;4.63;0.93;;;18.50;68.00;;;;;;5039910;28;20132;-74
2022/10/07 12:10:53;;;;;;;4.05;1.08;;;18.50;68.30;;;;;;5023561;28;20043;-75
2022/10/07 12:13:21;;;;;;;2.83;0.80;;;18.50;67.70;;;;;;5005502;28;20048;-76
2022/10/07 12:15:50;;;;;;;2.15;0.95;;;18.40;67.40;;;;;;5000621;28;20037;-75
2022/10/07 12:18:26;;;;;;;3.05;0.70;;;18.50;67.70;;;;;;5066940;28;20042;-75
2022/10/07 12:20:52;;;;;;;3.72;1.02;;;18.50;68.30;;;;;;5001642;28;20041;-75
2022/10/07 12:23:21;;;;;;;2.90;1.05;;;18.50;68.30;;;;;;5001402;28;20034;-75
2022/10/07 12:26:00;;;;;;;2.93;1.00;;;18.50;67.60;;;;;;5001157;28;20045;-75
2022/10/07 12:28:41;;;;;;;2.42;1.00;;;18.50;67.40;;;;;;5002341;28;20038;-75
2022/10/07 12:31:21;;;;;;;2.53;0.95;;;18.50;66.90;;;;;;4983274;28;20723;-74
2022/10/07 12:34:08;;;;;;;8.65;1.00;;;18.50;67.00;;;;;;5000548;28;20126;-78
2022/10/07 12:36:36;;;;;;;4.38;0.98;;;18.40;66.60;;;;;;4999898;28;20040;-78
2022/10/07 12:39:08;;;;;;;3.97;0.93;;;18.40;66.90;;;;;;5069817;28;20058;-77
2022/10/07 12:41:35;;;;;;;6.05;1.00;;;18.40;66.90;;;;;;4982872;28;20130;-87
2022/10/07 12:44:07;;;;;;;3.85;0.80;;;18.30;66.90;;;;;;4983966;28;20060;-77
2022/10/07 12:46:49;;;;;;;3.65;0.88;;;18.40;67.80;;;;;;5002212;28;20034;-77
2022/10/07 12:49:33;;;;;;;1.48;0.65;;;18.30;68.00;;;;;;4999599;28;20038;-79
2022/10/07 12:52:10;;;;;;;3.50;0.82;;;18.40;68.10;;;;;;5003476;28;20030;-78
2022/10/07 12:55:14;;;;;;;3.35;1.05;;;18.40;67.90;;;;;;4999130;28;20492;-78
2022/10/07 12:57:47;;;;;;;4.20;1.00;;;18.40;67.50;;;;;;5021318;28;20034;-78
2022/10/07 13:00:21;;;;;;;3.63;0.90;;;18.30;67.50;;;;;;4984082;28;20057;-78
2022/10/07 13:03:05;;;;;;;3.83;1.25;;;18.40;67.90;;;;;;4999124;28;20366;-78
2022/10/07 13:05:43;;;;;;;6.65;1.67;;;18.30;67.90;;;;;;4983561;28;20598;-77
2022/10/07 13:08:30;;;;;;;10.75;2.38;;;18.30;67.70;;;;;;4999870;28;20128;-83
2022/10/07 13:11:15;;;;;;;6.82;1.73;;;18.30;68.20;;;;;;4999721;28;20045;-77
2022/10/07 13:13:46;;;;;;;6.20;1.80;;;18.20;67.80;;;;;;4985903;28;20034;-84
2022/10/07 13:16:42;;;;;;;2.03;0.95;;;18.20;68.00;;;;;;5000371;28;20118;-78
2022/10/07 13:19:42;;;;;;;1.95;1.05;;;18.20;68.10;;;;;;5001146;28;20062;-80
2022/10/07 13:22:14;;;;;;;4.10;1.20;;;18.20;68.70;;;;;;4981339;28;20129;-80
2022/10/07 13:24:52;;;;;;;3.55;0.98;;;18.20;68.50;;;;;;5001130;28;20034;-80
2022/10/07 13:27:26;;;;;;;2.15;1.10;;;18.20;68.80;;;;;;4983171;28;20038;-80